sensor_id;sensor_type;location;lat;lon;timestamp;temperature;humidity
24176;DHT22;12324;48.146;11.502;2023-04-06T00:01:01;0.80;99.90
24176;DHT22;12324;48.146;11.502;2023-04-06T00:03:28;0.20;99.90
24176;DHT22;12324;48.146;11.502;2023-04-06T00:05:55;0.20;99.90
24176;DHT22;12324;48.146;11.502;2023-04-06T00:08:22;0.10;99.90
24176;DHT22;12324;48.146;11.502;2023-04-06T00:10:49;0.10;99.90
24176;DHT22;12324;48.146;11.502;2023-04-06T00:13:16;0.20;99.90
24176;DHT22;12324;48.146;11.502;2023-04-06T00:15:43;0.20;99.90
24176;DHT22;12324;48.146;11.502;2023-04-06T00:18:10;0.20;99.90
24176;DHT22;12324;48.146;11.502;2023-04-06T00:20:37;0.20;99.90
24176;DHT22;12324;48.146;11.502;2023-04-06T00:23:04;0.10;99.90
24176;DHT22;12324;48.146;11.502;2023-04-06T00:42:42;0.10;99.90
24176;DHT22;12324;48.146;11.502;2023-04-06T00:45:09;0.00;99.90
24176;DHT22;12324;48.146;11.502;2023-04-06T06:14:08;-0.10;99.90
24176;DHT22;12324;48.146;11.502;2023-04-06T06:16:35;0.90;99.90
24176;DHT22;12324;48.146;11.502;2023-04-06T06:19:02;0.90;99.90
24176;DHT22;12324;48.146;11.502;2023-04-06T06:21:28;1.00;99.90
24176;DHT22;12324;48.146;11.502;2023-04-06T06:36:12;1.10;99.90
24176;DHT22;12324;48.146;11.502;2023-04-06T06:58:18;2.00;99.90
24176;DHT22;12324;48.146;11.502;2023-04-06T08:24:38;3.70;99.90
24176;DHT22;12324;48.146;11.502;2023-04-06T08:27:05;7.50;93.30
24176;DHT22;12324;48.146;11.502;2023-04-06T08:29:31;7.50;90.20
24176;DHT22;12324;48.146;11.502;2023-04-06T08:31:58;7.50;90.00
24176;DHT22;12324;48.146;11.502;2023-04-06T08:34:25;7.50;89.20
24176;DHT22;12324;48.146;11.502;2023-04-06T08:36:52;7.30;87.10
24176;DHT22;12324;48.146;11.502;2023-04-06T08:39:18;7.20;84.70
24176;DHT22;12324;48.146;11.502;2023-04-06T08:41:52;7.30;86.10
24176;DHT22;12324;48.146;11.502;2023-04-06T08:44:19;7.30;85.10
24176;DHT22;12324;48.146;11.502;2023-04-06T08:46:46;7.40;85.70
24176;DHT22;12324;48.146;11.502;2023-04-06T08:49:14;7.50;78.90
24176;DHT22;12324;48.146;11.502;2023-04-06T08:51:42;7.30;74.40
24176;DHT22;12324;48.146;11.502;2023-04-06T08:54:09;7.30;76.50
24176;DHT22;12324;48.146;11.502;2023-04-06T08:56:39;7.50;76.80
24176;DHT22;12324;48.146;11.502;2023-04-06T08:59:07;7.40;73.40
24176;DHT22;12324;48.146;11.502;2023-04-06T09:01:38;7.60;72.30
24176;DHT22;12324;48.146;11.502;2023-04-06T09:04:09;7.60;73.00
24176;DHT22;12324;48.146;11.502;2023-04-06T09:11:48;7.80;72.70
24176;DHT22;12324;48.146;11.502;2023-04-06T09:14:15;8.20;68.60
24176;DHT22;12324;48.146;11.502;2023-04-06T09:16:44;8.30;69.40
24176;DHT22;12324;48.146;11.502;2023-04-06T09:19:12;8.40;68.10
24176;DHT22;12324;48.146;11.502;2023-04-06T09:21:39;8.50;67.10
24176;DHT22;12324;48.146;11.502;2023-04-06T09:24:07;8.70;66.30
24176;DHT22;12324;48.146;11.502;2023-04-06T09:26:47;8.50;65.40
24176;DHT22;12324;48.146;11.502;2023-04-06T09:29:24;8.40;60.70
24176;DHT22;12324;48.146;11.502;2023-04-06T09:32:04;8.20;61.80
24176;DHT22;12324;48.146;11.502;2023-04-06T09:34:32;8.40;60.90
24176;DHT22;12324;48.146;11.502;2023-04-06T09:36:59;8.50;59.20
24176;DHT22;12324;48.146;11.502;2023-04-06T09:39:26;8.30;60.30
24176;DHT22;12324;48.146;11.502;2023-04-06T09:41:53;8.50;61.70
24176;DHT22;12324;48.146;11.502;2023-04-06T09:44:20;8.50;61.50
24176;DHT22;12324;48.146;11.502;2023-04-06T09:46:47;8.70;60.00
24176;DHT22;12324;48.146;11.502;2023-04-06T09:49:27;8.60;58.60
24176;DHT22;12324;48.146;11.502;2023-04-06T09:51:57;8.20;58.20
24176;DHT22;12324;48.146;11.502;2023-04-06T09:54:28;8.30;59.10
24176;DHT22;12324;48.146;11.502;2023-04-06T10:00:04;8.30;59.50
24176;DHT22;12324;48.146;11.502;2023-04-06T10:05:55;8.70;58.20
24176;DHT22;12324;48.146;11.502;2023-04-06T10:08:27;8.80;58.20
24176;DHT22;12324;48.146;11.502;2023-04-06T10:10:58;8.60;57.80
24176;DHT22;12324;48.146;11.502;2023-04-06T10:13:25;8.50;57.50
24176;DHT22;12324;48.146;11.502;2023-04-06T10:15:52;8.40;57.50
24176;DHT22;12324;48.146;11.502;2023-04-06T10:18:19;8.60;57.00
24176;DHT22;12324;48.146;11.502;2023-04-06T10:20:53;8.90;58.00
24176;DHT22;12324;48.146;11.502;2023-04-06T10:30:49;9.20;57.20
24176;DHT22;12324;48.146;11.502;2023-04-06T10:33:22;9.30;54.70
24176;DHT22;12324;48.146;11.502;2023-04-06T10:35:49;9.50;55.10
24176;DHT22;12324;48.146;11.502;2023-04-06T10:38:16;9.40;55.30
24176;DHT22;12324;48.146;11.502;2023-04-06T11:55:52;9.60;54.60
24176;DHT22;12324;48.146;11.502;2023-04-06T11:58:19;10.80;46.80
24176;DHT22;12324;48.146;11.502;2023-04-06T12:10:35;11.00;47.30
24176;DHT22;12324;48.146;11.502;2023-04-06T12:13:02;11.00;42.50
24176;DHT22;12324;48.146;11.502;2023-04-06T12:15:28;11.30;42.90
24176;DHT22;12324;48.146;11.502;2023-04-06T12:17:55;11.50;43.70
24176;DHT22;12324;48.146;11.502;2023-04-06T12:20:22;11.50;43.20
24176;DHT22;12324;48.146;11.502;2023-04-06T12:22:52;11.70;41.60
24176;DHT22;12324;48.146;11.502;2023-04-06T12:25:19;11.90;41.40
24176;DHT22;12324;48.146;11.502;2023-04-06T12:27:46;11.80;42.30
24176;DHT22;12324;48.146;11.502;2023-04-06T13:09:33;11.80;42.90
24176;DHT22;12324;48.146;11.502;2023-04-06T13:11:59;11.00;42.20
24176;DHT22;12324;48.146;11.502;2023-04-06T13:14:27;11.30;43.60
24176;DHT22;12324;48.146;11.502;2023-04-06T13:16:54;11.70;42.70
24176;DHT22;12324;48.146;11.502;2023-04-06T13:19:21;12.10;42.60
24176;DHT22;12324;48.146;11.502;2023-04-06T13:21:48;12.50;40.80
24176;DHT22;12324;48.146;11.502;2023-04-06T13:24:15;12.20;40.50
24176;DHT22;12324;48.146;11.502;2023-04-06T13:26:43;12.20;41.00
24176;DHT22;12324;48.146;11.502;2023-04-06T13:29:10;12.40;40.60
24176;DHT22;12324;48.146;11.502;2023-04-06T13:31:36;12.80;41.10
24176;DHT22;12324;48.146;11.502;2023-04-06T13:34:04;12.90;41.30
24176;DHT22;12324;48.146;11.502;2023-04-06T13:36:31;12.80;43.00
24176;DHT22;12324;48.146;11.502;2023-04-06T13:38:58;13.40;39.30
24176;DHT22;12324;48.146;11.502;2023-04-06T13:41:25;13.50;38.10
24176;DHT22;12324;48.146;11.502;2023-04-06T13:46:20;13.70;37.80
24176;DHT22;12324;48.146;11.502;2023-04-06T13:48:47;12.80;36.50
24176;DHT22;12324;48.146;11.502;2023-04-06T13:51:14;13.00;40.30
24176;DHT22;12324;48.146;11.502;2023-04-06T13:53:41;13.30;38.60
24176;DHT22;12324;48.146;11.502;2023-04-06T13:56:08;13.30;38.60
24176;DHT22;12324;48.146;11.502;2023-04-06T13:58:35;13.60;38.60
24176;DHT22;12324;48.146;11.502;2023-04-06T14:01:07;13.60;37.00
24176;DHT22;12324;48.146;11.502;2023-04-06T14:03:36;13.50;36.20
24176;DHT22;12324;48.146;11.502;2023-04-06T14:06:13;13.20;35.70
24176;DHT22;12324;48.146;11.502;2023-04-06T14:08:56;13.30;39.60
24176;DHT22;12324;48.146;11.502;2023-04-06T14:13:50;14.80;43.70
24176;DHT22;12324;48.146;11.502;2023-04-06T14:16:17;15.60;35.00
24176;DHT22;12324;48.146;11.502;2023-04-06T14:18:46;14.70;34.30
24176;DHT22;12324;48.146;11.502;2023-04-06T14:21:12;13.70;34.40
24176;DHT22;12324;48.146;11.502;2023-04-06T14:23:39;13.10;35.80
24176;DHT22;12324;48.146;11.502;2023-04-06T14:26:08;12.80;36.80
24176;DHT22;12324;48.146;11.502;2023-04-06T14:28:35;13.10;38.20
24176;DHT22;12324;48.146;11.502;2023-04-06T14:31:13;13.00;36.80
24176;DHT22;12324;48.146;11.502;2023-04-06T14:33:42;13.10;37.40
24176;DHT22;12324;48.146;11.502;2023-04-06T14:36:09;13.20;35.40
24176;DHT22;12324;48.146;11.502;2023-04-06T14:38:36;13.10;36.70
24176;DHT22;12324;48.146;11.502;2023-04-06T14:41:02;14.10;35.60
24176;DHT22;12324;48.146;11.502;2023-04-06T14:48:28;15.10;34.60
24176;DHT22;12324;48.146;11.502;2023-04-06T17:16:18;13.40;28.30
24176;DHT22;12324;48.146;11.502;2023-04-06T17:18:46;11.00;35.70
24176;DHT22;12324;48.146;11.502;2023-04-06T17:21:13;10.80;34.50
24176;DHT22;12324;48.146;11.502;2023-04-06T17:23:40;10.50;34.50
24176;DHT22;12324;48.146;11.502;2023-04-06T17:26:07;10.40;36.60
24176;DHT22;12324;48.146;11.502;2023-04-06T17:28:34;10.40;37.80
24176;DHT22;12324;48.146;11.502;2023-04-06T17:31:01;10.20;38.30
24176;DHT22;12324;48.146;11.502;2023-04-06T17:38:25;10.20;39.50
24176;DHT22;12324;48.146;11.502;2023-04-06T17:40:51;9.90;44.00
24176;DHT22;12324;48.146;11.502;2023-04-06T17:43:18;10.00;46.10
24176;DHT22;12324;48.146;11.502;2023-04-06T17:48:16;9.90;44.30
24176;DHT22;12324;48.146;11.502;2023-04-06T17:50:43;9.40;41.30
24176;DHT22;12324;48.146;11.502;2023-04-06T17:53:11;9.30;47.10
24176;DHT22;12324;48.146;11.502;2023-04-06T17:55:37;9.10;43.60
24176;DHT22;12324;48.146;11.502;2023-04-06T17:58:04;9.10;45.70
24176;DHT22;12324;48.146;11.502;2023-04-06T18:00:31;9.00;45.00
24176;DHT22;12324;48.146;11.502;2023-04-06T18:02:58;8.90;46.60
24176;DHT22;12324;48.146;11.502;2023-04-06T18:05:25;8.70;45.70
24176;DHT22;12324;48.146;11.502;2023-04-06T18:07:54;8.60;51.40
24176;DHT22;12324;48.146;11.502;2023-04-06T18:10:21;8.40;49.10
24176;DHT22;12324;48.146;11.502;2023-04-06T18:12:48;8.20;50.10
24176;DHT22;12324;48.146;11.502;2023-04-06T18:15:15;8.10;52.70
24176;DHT22;12324;48.146;11.502;2023-04-06T18:17:43;8.00;52.80
24176;DHT22;12324;48.146;11.502;2023-04-06T18:20:10;7.90;56.10
24176;DHT22;12324;48.146;11.502;2023-04-06T18:22:43;7.70;56.70
24176;DHT22;12324;48.146;11.502;2023-04-06T18:25:10;7.60;56.50
24176;DHT22;12324;48.146;11.502;2023-04-06T18:27:38;7.50;56.70
24176;DHT22;12324;48.146;11.502;2023-04-06T18:30:05;7.40;60.60
24176;DHT22;12324;48.146;11.502;2023-04-06T18:32:32;7.30;65.00
24176;DHT22;12324;48.146;11.502;2023-04-06T18:34:59;7.50;84.70
24176;DHT22;12324;48.146;11.502;2023-04-06T18:37:25;7.40;82.90
24176;DHT22;12324;48.146;11.502;2023-04-06T18:39:52;7.20;73.70
24176;DHT22;12324;48.146;11.502;2023-04-06T18:42:20;7.10;75.60
24176;DHT22;12324;48.146;11.502;2023-04-06T18:44:47;7.00;80.00
24176;DHT22;12324;48.146;11.502;2023-04-06T18:47:14;6.90;81.80
24176;DHT22;12324;48.146;11.502;2023-04-06T18:54:35;6.70;79.10
24176;DHT22;12324;48.146;11.502;2023-04-06T18:57:02;6.30;81.50
24176;DHT22;12324;48.146;11.502;2023-04-06T18:59:30;6.20;82.20
24176;DHT22;12324;48.146;11.502;2023-04-06T19:01:57;6.10;84.00
24176;DHT22;12324;48.146;11.502;2023-04-06T19:04:24;6.00;86.80
24176;DHT22;12324;48.146;11.502;2023-04-06T19:06:52;5.90;88.40
24176;DHT22;12324;48.146;11.502;2023-04-06T19:09:20;5.80;89.10
24176;DHT22;12324;48.146;11.502;2023-04-06T19:43:53;5.70;90.90
24176;DHT22;12324;48.146;11.502;2023-04-06T19:46:19;5.10;99.90
24176;DHT22;12324;48.146;11.502;2023-04-06T19:48:47;5.10;99.90
24176;DHT22;12324;48.146;11.502;2023-04-06T19:51:13;5.10;99.90
24176;DHT22;12324;48.146;11.502;2023-04-06T19:53:40;5.10;99.90
24176;DHT22;12324;48.146;11.502;2023-04-06T19:56:07;5.10;99.90
24176;DHT22;12324;48.146;11.502;2023-04-06T19:58:36;5.20;99.90
24176;DHT22;12324;48.146;11.502;2023-04-06T20:01:03;5.30;99.90
24176;DHT22;12324;48.146;11.502;2023-04-06T20:03:30;5.30;99.90
24176;DHT22;12324;48.146;11.502;2023-04-06T20:05:58;5.40;99.90
24176;DHT22;12324;48.146;11.502;2023-04-06T20:08:24;5.40;99.90
24176;DHT22;12324;48.146;11.502;2023-04-06T20:10:51;5.50;99.90
24176;DHT22;12324;48.146;11.502;2023-04-06T20:13:18;5.50;99.90
24176;DHT22;12324;48.146;11.502;2023-04-06T20:15:46;5.70;99.90
24176;DHT22;12324;48.146;11.502;2023-04-06T20:18:13;5.80;99.90
24176;DHT22;12324;48.146;11.502;2023-04-06T20:20:39;5.80;99.90
24176;DHT22;12324;48.146;11.502;2023-04-06T20:23:06;5.70;99.90
24176;DHT22;12324;48.146;11.502;2023-04-06T20:25:33;5.70;99.90
24176;DHT22;12324;48.146;11.502;2023-04-06T20:27:59;5.60;99.90
24176;DHT22;12324;48.146;11.502;2023-04-06T20:30:26;5.70;99.90
24176;DHT22;12324;48.146;11.502;2023-04-06T20:32:53;5.70;99.90
24176;DHT22;12324;48.146;11.502;2023-04-06T20:35:20;5.70;99.90
24176;DHT22;12324;48.146;11.502;2023-04-06T20:37:46;5.70;99.90
24176;DHT22;12324;48.146;11.502;2023-04-06T20:40:13;5.70;99.90
24176;DHT22;12324;48.146;11.502;2023-04-06T20:42:40;5.60;99.90
24176;DHT22;12324;48.146;11.502;2023-04-06T20:45:07;5.70;99.90
24176;DHT22;12324;48.146;11.502;2023-04-06T20:47:34;5.70;99.90
24176;DHT22;12324;48.146;11.502;2023-04-06T20:50:01;5.80;99.90
24176;DHT22;12324;48.146;11.502;2023-04-06T20:52:28;5.90;99.90
24176;DHT22;12324;48.146;11.502;2023-04-06T20:54:54;5.80;99.90
24176;DHT22;12324;48.146;11.502;2023-04-06T20:57:22;5.80;99.90
24176;DHT22;12324;48.146;11.502;2023-04-06T20:59:49;5.80;99.90
24176;DHT22;12324;48.146;11.502;2023-04-06T21:02:16;5.90;99.90
24176;DHT22;12324;48.146;11.502;2023-04-06T21:04:43;6.00;99.90
24176;DHT22;12324;48.146;11.502;2023-04-06T21:07:10;6.00;99.90
24176;DHT22;12324;48.146;11.502;2023-04-06T21:09:39;6.00;99.90
24176;DHT22;12324;48.146;11.502;2023-04-06T21:12:06;6.00;99.90
24176;DHT22;12324;48.146;11.502;2023-04-06T21:14:33;5.90;99.90
24176;DHT22;12324;48.146;11.502;2023-04-06T21:17:00;5.90;99.90
24176;DHT22;12324;48.146;11.502;2023-04-06T21:19:27;5.90;99.90
24176;DHT22;12324;48.146;11.502;2023-04-06T21:21:53;5.90;99.90
24176;DHT22;12324;48.146;11.502;2023-04-06T21:24:20;5.90;99.90
24176;DHT22;12324;48.146;11.502;2023-04-06T21:26:47;5.90;99.90
24176;DHT22;12324;48.146;11.502;2023-04-06T21:29:13;5.90;99.90
24176;DHT22;12324;48.146;11.502;2023-04-06T21:31:40;5.90;99.90
24176;DHT22;12324;48.146;11.502;2023-04-06T21:34:09;5.90;99.90
24176;DHT22;12324;48.146;11.502;2023-04-06T21:36:36;6.00;99.90
24176;DHT22;12324;48.146;11.502;2023-04-06T21:39:04;6.00;99.90
24176;DHT22;12324;48.146;11.502;2023-04-06T21:41:32;6.00;99.90
24176;DHT22;12324;48.146;11.502;2023-04-06T21:43:59;6.00;99.90
24176;DHT22;12324;48.146;11.502;2023-04-06T21:46:26;6.00;99.90
24176;DHT22;12324;48.146;11.502;2023-04-06T21:48:52;6.00;99.90
24176;DHT22;12324;48.146;11.502;2023-04-06T21:51:20;6.10;99.90
24176;DHT22;12324;48.146;11.502;2023-04-06T21:53:48;6.10;99.90
24176;DHT22;12324;48.146;11.502;2023-04-06T21:56:21;6.10;99.90
24176;DHT22;12324;48.146;11.502;2023-04-06T21:58:49;6.10;99.90
24176;DHT22;12324;48.146;11.502;2023-04-06T22:01:16;6.10;99.90
24176;DHT22;12324;48.146;11.502;2023-04-06T22:03:44;6.10;99.90
24176;DHT22;12324;48.146;11.502;2023-04-06T22:06:12;6.00;99.90
24176;DHT22;12324;48.146;11.502;2023-04-06T22:08:38;6.00;99.90
24176;DHT22;12324;48.146;11.502;2023-04-06T22:11:06;6.00;99.90
24176;DHT22;12324;48.146;11.502;2023-04-06T22:13:37;6.00;99.90
24176;DHT22;12324;48.146;11.502;2023-04-06T22:16:04;5.90;99.90
24176;DHT22;12324;48.146;11.502;2023-04-06T22:18:32;5.90;99.90
24176;DHT22;12324;48.146;11.502;2023-04-06T22:20:59;5.90;99.90
24176;DHT22;12324;48.146;11.502;2023-04-06T22:23:26;5.90;99.90
24176;DHT22;12324;48.146;11.502;2023-04-06T22:25:53;5.80;99.90
24176;DHT22;12324;48.146;11.502;2023-04-06T22:28:19;5.80;99.90
24176;DHT22;12324;48.146;11.502;2023-04-06T22:30:46;5.80;99.90
24176;DHT22;12324;48.146;11.502;2023-04-06T22:33:13;5.80;99.90
24176;DHT22;12324;48.146;11.502;2023-04-06T22:35:40;5.80;99.90
24176;DHT22;12324;48.146;11.502;2023-04-06T22:38:07;5.80;99.90
24176;DHT22;12324;48.146;11.502;2023-04-06T22:40:34;5.80;99.90
24176;DHT22;12324;48.146;11.502;2023-04-06T22:43:01;5.80;99.90
24176;DHT22;12324;48.146;11.502;2023-04-06T22:45:27;5.70;99.90
24176;DHT22;12324;48.146;11.502;2023-04-06T22:47:54;5.70;99.90
24176;DHT22;12324;48.146;11.502;2023-04-06T22:50:21;5.70;99.90
24176;DHT22;12324;48.146;11.502;2023-04-06T22:52:48;5.70;99.90
24176;DHT22;12324;48.146;11.502;2023-04-06T22:55:14;5.60;99.90
24176;DHT22;12324;48.146;11.502;2023-04-06T22:57:41;5.50;99.90
24176;DHT22;12324;48.146;11.502;2023-04-06T23:00:08;5.50;99.90
24176;DHT22;12324;48.146;11.502;2023-04-06T23:02:35;5.50;99.90
24176;DHT22;12324;48.146;11.502;2023-04-06T23:05:02;5.50;99.90
24176;DHT22;12324;48.146;11.502;2023-04-06T23:07:29;5.50;99.90
24176;DHT22;12324;48.146;11.502;2023-04-06T23:09:58;5.50;99.90
24176;DHT22;12324;48.146;11.502;2023-04-06T23:12:24;5.50;99.90
24176;DHT22;12324;48.146;11.502;2023-04-06T23:14:51;5.40;99.90
24176;DHT22;12324;48.146;11.502;2023-04-06T23:17:18;5.30;99.90
24176;DHT22;12324;48.146;11.502;2023-04-06T23:19:45;5.20;99.90
24176;DHT22;12324;48.146;11.502;2023-04-06T23:22:11;5.20;99.90
24176;DHT22;12324;48.146;11.502;2023-04-06T23:24:38;5.00;99.90
24176;DHT22;12324;48.146;11.502;2023-04-06T23:27:05;5.10;99.90
24176;DHT22;12324;48.146;11.502;2023-04-06T23:56:30;5.00;99.90
24176;DHT22;12324;48.146;11.502;2023-04-06T23:58:57;4.60;99.90
